Time;durP1;ratioP1;P1;durP2;ratioP2;P2;SDS_P1;SDS_P2;PMS_P1;PMS_P2;Temp;Humidity;BMP_temperature;BMP_pressure;BME280_temperature;BME280_humidity;BME280_pressure;Samples;Min_cycle;Max_cycle;Signal;HPM_P1;HPM_P2
2022/06/29 00:00:16;;;;;;;9.23;8.30;;;23.50;99.90;;;;;;5072555;28;20035;-75
2022/06/29 00:02:46;;;;;;;11.45;8.32;;;23.60;99.90;;;;;;5071963;28;20028;-76
2022/06/29 00:05:14;;;;;;;10.02;8.10;;;23.60;99.90;;;;;;5072427;28;20025;-75
2022/06/29 00:07:41;;;;;;;11.30;8.70;;;23.60;99.90;;;;;;5071780;28;20024;-76
2022/06/29 00:10:08;;;;;;;9.10;7.90;;;23.60;99.90;;;;;;5071312;28;20036;-75
2022/06/29 00:12:35;;;;;;;12.45;8.27;;;23.60;99.90;;;;;;5072596;28;20463;-76
2022/06/29 00:15:03;;;;;;;9.48;8.18;;;23.60;99.90;;;;;;5071935;28;20458;-74
2022/06/29 00:17:31;;;;;;;9.23;8.00;;;23.60;99.90;;;;;;5071808;28;20100;-74
2022/06/29 00:19:58;;;;;;;11.18;8.27;;;23.70;99.90;;;;;;5071516;28;20028;-76
2022/06/29 00:22:25;;;;;;;11.45;8.52;;;23.70;99.90;;;;;;5072527;28;20036;-76
2022/06/29 00:24:50;;;;;;;10.48;8.20;;;23.70;99.90;;;;;;5070820;28;20028;-73
2022/06/29 00:27:16;;;;;;;10.25;8.60;;;23.70;99.90;;;;;;5070264;28;20037;-76
2022/06/29 00:29:42;;;;;;;13.60;8.18;;;23.70;99.90;;;;;;5071717;28;20077;-75
2022/06/29 00:32:08;;;;;;;9.75;8.73;;;23.70;99.90;;;;;;5072068;28;20482;-74
2022/06/29 00:34:35;;;;;;;11.10;8.13;;;23.80;99.90;;;;;;5071680;28;20028;-76
2022/06/29 00:37:01;;;;;;;12.07;8.68;;;23.80;99.90;;;;;;5071961;28;20032;-75
2022/06/29 00:39:27;;;;;;;10.27;9.18;;;23.70;99.90;;;;;;5070594;28;20025;-75
2022/06/29 00:41:53;;;;;;;10.70;8.98;;;23.80;99.90;;;;;;5071379;28;20387;-76
2022/06/29 00:44:20;;;;;;;13.07;9.48;;;23.70;99.90;;;;;;5072207;28;20031;-76
2022/06/29 00:46:52;;;;;;;12.25;9.18;;;23.70;99.90;;;;;;5071922;28;20051;-75
2022/06/29 00:49:20;;;;;;;9.80;8.80;;;23.70;99.90;;;;;;5067750;28;20021;-75
2022/06/29 00:52:09;;;;;;;12.27;8.68;;;23.70;99.90;;;;;;5071888;28;20028;-76
2022/06/29 00:54:43;;;;;;;14.10;9.20;;;23.60;99.90;;;;;;5072164;28;20032;-76
2022/06/29 00:57:13;;;;;;;12.20;8.07;;;23.60;99.90;;;;;;5074310;28;20712;-73
2022/06/29 00:59:44;;;;;;;10.88;9.25;;;23.60;99.90;;;;;;5072865;28;20538;-75
2022/06/29 01:02:10;;;;;;;13.88;9.90;;;23.50;99.90;;;;;;5075116;28;20467;-74
2022/06/29 01:04:37;;;;;;;10.98;9.07;;;23.50;99.90;;;;;;5075371;28;20013;-74
2022/06/29 01:07:03;;;;;;;11.15;8.98;;;23.50;99.90;;;;;;5075351;28;20013;-74
2022/06/29 01:09:30;;;;;;;11.35;9.52;;;23.50;99.90;;;;;;5073670;28;20477;-75
2022/06/29 01:11:57;;;;;;;14.35;10.00;;;23.40;99.90;;;;;;5075232;28;20020;-76
2022/06/29 01:14:23;;;;;;;12.20;9.35;;;23.40;99.90;;;;;;5075253;28;20031;-75
2022/06/29 01:16:49;;;;;;;14.48;9.60;;;23.40;99.90;;;;;;5074709;28;20024;-76
2022/06/29 01:19:15;;;;;;;20.67;10.02;;;23.30;99.90;;;;;;5074807;28;20123;-75
2022/06/29 01:21:44;;;;;;;13.45;8.80;;;23.30;99.90;;;;;;5074758;28;20103;-74
2022/06/29 01:24:10;;;;;;;13.27;8.88;;;23.30;99.90;;;;;;5074605;28;20023;-75
2022/06/29 01:26:36;;;;;;;12.20;8.75;;;23.30;99.90;;;;;;5074898;28;20387;-76
2022/06/29 01:29:02;;;;;;;11.48;8.25;;;23.20;99.90;;;;;;5074565;28;20034;-74
2022/06/29 01:31:28;;;;;;;10.70;9.65;;;23.20;99.90;;;;;;5073532;28;20459;-76
2022/06/29 01:33:54;;;;;;;13.00;8.70;;;23.20;99.90;;;;;;5074572;28;20111;-75
2022/06/29 01:36:20;;;;;;;14.50;9.25;;;23.10;99.90;;;;;;5074229;28;20405;-75
2022/06/29 01:38:46;;;;;;;11.05;9.13;;;23.10;99.90;;;;;;5074820;28;20430;-75
2022/06/29 01:41:12;;;;;;;20.38;13.90;;;23.10;99.90;;;;;;5074750;28;20118;-75
2022/06/29 01:43:38;;;;;;;20.05;13.50;;;23.10;99.90;;;;;;5074452;28;20030;-75
2022/06/29 01:46:04;;;;;;;11.32;10.07;;;23.10;99.90;;;;;;5073295;28;20033;-74
2022/06/29 01:48:31;;;;;;;10.95;9.65;;;23.10;99.90;;;;;;5074675;28;20024;-74
2022/06/29 01:50:57;;;;;;;24.20;14.95;;;23.10;99.90;;;;;;5075003;28;20060;-75
2022/06/29 01:53:23;;;;;;;14.43;12.82;;;23.10;99.90;;;;;;5075637;28;20051;-75
2022/06/29 01:55:49;;;;;;;15.98;11.40;;;23.10;99.90;;;;;;5075972;28;20020;-74
2022/06/29 01:58:14;;;;;;;16.83;10.77;;;23.10;99.90;;;;;;5075538;28;20028;-73
2022/06/29 02:00:41;;;;;;;10.77;9.65;;;23.00;99.90;;;;;;5075443;28;20107;-75
2022/06/29 02:03:07;;;;;;;12.63;9.68;;;23.00;99.90;;;;;;5074435;28;20473;-75
2022/06/29 02:05:33;;;;;;;14.00;9.98;;;23.00;99.90;;;;;;5073141;28;20029;-75
2022/06/29 02:07:59;;;;;;;11.82;9.38;;;23.00;99.90;;;;;;5075279;28;20029;-75
2022/06/29 02:10:25;;;;;;;11.32;9.48;;;23.00;99.90;;;;;;5074209;28;20033;-74
2022/06/29 02:12:50;;;;;;;12.65;11.30;;;23.00;99.90;;;;;;5075136;28;20071;-75
2022/06/29 02:15:16;;;;;;;18.45;12.38;;;22.90;99.90;;;;;;5075283;28;20429;-75
2022/06/29 02:17:42;;;;;;;11.43;10.27;;;22.90;99.90;;;;;;5075384;28;20055;-76
2022/06/29 02:20:09;;;;;;;10.80;9.73;;;22.80;99.90;;;;;;5073911;28;20032;-74
2022/06/29 02:22:35;;;;;;;14.10;9.75;;;22.80;99.90;;;;;;5075296;28;20036;-75
2022/06/29 02:25:00;;;;;;;14.88;10.00;;;22.80;99.90;;;;;;5075355;28;20036;-75
2022/06/29 02:27:26;;;;;;;21.50;14.98;;;22.80;99.90;;;;;;5075051;28;20048;-74
2022/06/29 02:29:52;;;;;;;18.08;13.48;;;22.70;99.90;;;;;;5073842;28;20032;-74
2022/06/29 02:35:02;;;;;;;11.70;9.68;;;22.60;99.90;;;;;;5075012;28;20039;-74
2022/06/29 02:37:28;;;;;;;10.77;9.75;;;22.60;99.90;;;;;;5074784;28;20390;-75
2022/06/29 02:39:54;;;;;;;11.55;9.98;;;22.60;99.90;;;;;;5073366;28;20121;-75
2022/06/29 02:42:20;;;;;;;10.98;9.80;;;22.50;99.90;;;;;;5074949;28;20471;-74
2022/06/29 02:44:46;;;;;;;15.77;9.93;;;22.60;99.90;;;;;;5073715;28;20094;-75
2022/06/29 02:47:13;;;;;;;10.85;9.68;;;22.50;99.90;;;;;;5074530;28;20375;-74
2022/06/29 02:49:38;;;;;;;13.65;9.27;;;22.50;99.90;;;;;;5074759;28;20025;-76
2022/06/29 02:52:04;;;;;;;12.23;8.98;;;22.50;99.90;;;;;;5074813;28;20382;-75
2022/06/29 02:54:30;;;;;;;10.90;8.82;;;22.40;99.90;;;;;;5074153;28;20059;-77
2022/06/29 02:56:56;;;;;;;14.02;10.10;;;22.40;99.90;;;;;;5074686;28;20028;-76
2022/06/29 02:59:23;;;;;;;11.73;9.65;;;22.40;99.90;;;;;;5073372;28;20060;-76
2022/06/29 03:01:49;;;;;;;14.85;10.20;;;22.40;99.90;;;;;;5074002;28;20387;-76
2022/06/29 03:04:15;;;;;;;11.10;9.35;;;22.40;99.90;;;;;;5074549;28;20024;-75
2022/06/29 03:06:41;;;;;;;11.52;10.02;;;22.40;99.90;;;;;;5074515;28;20036;-76
2022/06/29 03:09:08;;;;;;;14.45;9.70;;;22.30;99.90;;;;;;5074172;28;20025;-75
2022/06/29 03:11:34;;;;;;;11.27;10.07;;;22.30;99.90;;;;;;5074418;28;20032;-75
2022/06/29 03:14:00;;;;;;;14.30;9.93;;;22.30;99.90;;;;;;5074032;28;20025;-75
2022/06/29 03:16:25;;;;;;;10.68;9.23;;;22.30;99.90;;;;;;5074340;28;20029;-74
2022/06/29 03:18:51;;;;;;;13.00;9.23;;;22.30;99.90;;;;;;5073957;28;20032;-74
2022/06/29 03:21:18;;;;;;;13.38;9.25;;;22.30;99.90;;;;;;5074213;28;20031;-76
2022/06/29 03:23:44;;;;;;;12.93;9.80;;;22.30;99.90;;;;;;5074218;28;20052;-75
2022/06/29 03:26:11;;;;;;;11.07;9.32;;;22.20;99.90;;;;;;5073787;28;20051;-74
2022/06/29 03:28:37;;;;;;;12.98;10.05;;;22.30;99.90;;;;;;5074091;28;20100;-76
2022/06/29 03:31:03;;;;;;;9.90;8.68;;;22.20;99.90;;;;;;5073750;28;20029;-75
2022/06/29 03:33:29;;;;;;;14.45;9.90;;;22.20;99.90;;;;;;5073732;28;20040;-76
2022/06/29 03:35:55;;;;;;;10.30;9.30;;;22.20;99.90;;;;;;5073442;28;20029;-76
2022/06/29 03:38:21;;;;;;;10.70;9.57;;;22.20;99.90;;;;;;5073774;28;20020;-76
2022/06/29 03:40:46;;;;;;;11.20;9.77;;;22.20;99.90;;;;;;5074364;28;20383;-75
2022/06/29 03:43:12;;;;;;;13.48;9.80;;;22.30;99.90;;;;;;5073757;28;20367;-75
2022/06/29 03:45:38;;;;;;;11.52;8.98;;;22.30;99.90;;;;;;5073622;28;20036;-75
2022/06/29 03:48:05;;;;;;;13.00;9.40;;;22.30;99.90;;;;;;5074184;28;20150;-76
2022/06/29 03:50:30;;;;;;;11.10;8.95;;;22.30;99.90;;;;;;5073590;28;20371;-75
2022/06/29 03:52:56;;;;;;;11.32;10.00;;;22.30;99.90;;;;;;5073945;28;20028;-76
2022/06/29 03:55:22;;;;;;;11.40;9.52;;;22.40;99.90;;;;;;5073837;28;20371;-76
2022/06/29 03:57:48;;;;;;;12.05;9.50;;;22.40;99.90;;;;;;5073191;28;20070;-76
2022/06/29 04:00:14;;;;;;;13.43;11.05;;;22.50;99.90;;;;;;5073819;28;20058;-76
2022/06/29 04:02:41;;;;;;;15.45;11.57;;;22.60;99.90;;;;;;5073750;28;20025;-76
2022/06/29 04:05:07;;;;;;;14.60;11.13;;;22.60;99.90;;;;;;5072546;28;20074;-75
2022/06/29 04:07:34;;;;;;;11.48;10.05;;;22.60;99.90;;;;;;5072430;28;20024;-76
2022/06/29 04:10:00;;;;;;;13.40;9.45;;;22.60;99.90;;;;;;5073017;28;20537;-75
2022/06/29 04:12:35;;;;;;;13.25;10.15;;;22.60;99.90;;;;;;5072386;28;20485;-77
2022/06/29 04:15:02;;;;;;;10.52;9.43;;;22.60;99.90;;;;;;5072337;28;20029;-76
2022/06/29 04:17:28;;;;;;;11.02;9.68;;;22.60;99.90;;;;;;5073120;28;20119;-75
2022/06/29 04:19:54;;;;;;;13.48;11.32;;;22.60;99.90;;;;;;5073652;28;20103;-76
2022/06/29 04:22:20;;;;;;;13.40;10.85;;;22.70;99.90;;;;;;5073618;28;20029;-75
2022/06/29 04:24:47;;;;;;;14.45;10.80;;;22.80;99.90;;;;;;5073020;28;20032;-75
2022/06/29 04:27:13;;;;;;;13.27;10.25;;;22.80;99.90;;;;;;5073418;28;20072;-75
2022/06/29 04:29:39;;;;;;;13.18;10.73;;;22.90;99.90;;;;;;5073618;28;20040;-74
2022/06/29 04:32:05;;;;;;;18.98;10.95;;;23.00;99.90;;;;;;5077470;28;20036;-75
2022/06/29 04:34:30;;;;;;;18.02;10.63;;;23.10;99.90;;;;;;5077474;28;20035;-74
2022/06/29 04:36:56;;;;;;;18.75;10.55;;;23.20;99.90;;;;;;5077112;28;20024;-77
2022/06/29 04:39:22;;;;;;;19.85;10.68;;;23.30;99.90;;;;;;5076769;28;20502;-75
2022/06/29 04:41:48;;;;;;;16.65;10.68;;;23.40;99.90;;;;;;5077353;28;20028;-76
2022/06/29 04:44:15;;;;;;;14.07;10.07;;;23.50;99.90;;;;;;5077284;28;20510;-76
2022/06/29 04:46:41;;;;;;;12.02;9.90;;;23.60;99.90;;;;;;5076900;28;20109;-75
2022/06/29 04:49:07;;;;;;;12.77;9.82;;;23.60;99.90;;;;;;5076817;28;20040;-76
2022/06/29 04:51:35;;;;;;;12.77;8.90;;;23.70;99.90;;;;;;5076762;28;20108;-75
2022/06/29 04:54:01;;;;;;;12.30;9.70;;;23.80;99.90;;;;;;5076617;28;20021;-76
2022/06/29 04:56:29;;;;;;;15.63;8.90;;;23.90;99.90;;;;;;5076997;28;20050;-77
2022/06/29 04:58:56;;;;;;;15.00;9.50;;;24.00;99.90;;;;;;5076468;28;20065;-76
2022/06/29 05:01:22;;;;;;;15.75;9.07;;;;;;;;;;5075639;28;20115;-75
2022/06/29 05:03:49;;;;;;;11.52;8.55;;;24.20;99.90;;;;;;5077160;28;20092;-76
2022/06/29 05:06:15;;;;;;;19.55;9.23;;;24.20;99.90;;;;;;5076208;28;20025;-76
2022/06/29 05:08:40;;;;;;;11.55;8.82;;;24.30;99.90;;;;;;5077091;28;20123;-76
2022/06/29 05:11:07;;;;;;;12.02;9.30;;;24.40;99.90;;;;;;5076344;28;20037;-75
2022/06/29 05:13:32;;;;;;;10.07;9.07;;;24.40;99.90;;;;;;5076374;28;20082;-75
2022/06/29 05:15:58;;;;;;;10.23;9.38;;;24.50;99.90;;;;;;5075343;28;20028;-76
2022/06/29 05:18:24;;;;;;;9.70;8.48;;;24.70;99.90;;;;;;5076647;28;20119;-76
2022/06/29 05:20:50;;;;;;;12.35;8.45;;;24.70;99.90;;;;;;5076063;28;20064;-76
2022/06/29 05:23:16;;;;;;;9.60;7.65;;;24.70;99.90;;;;;;5075244;28;20024;-77
2022/06/29 05:25:42;;;;;;;10.18;7.90;;;;;;;;;;5076297;28;20032;-77
2022/06/29 05:28:11;;;;;;;12.55;8.27;;;;;;;;;;5076311;28;20041;-77
2022/06/29 05:30:37;;;;;;;10.02;8.48;;;;;;;;;;5076034;28;20348;-76
2022/06/29 05:33:03;;;;;;;10.25;8.45;;;;;;;;;;5076411;28;20024;-77
2022/06/29 05:35:33;;;;;;;12.90;8.40;;;;;;;;;;5075993;28;20020;-76
2022/06/29 05:38:00;;;;;;;15.25;9.40;;;;;;;;;;5076315;28;20024;-77
2022/06/29 05:40:26;;;;;;;11.18;9.65;;;;;;;;;;5074943;28;20475;-75
2022/06/29 05:42:52;;;;;;;12.07;8.30;;;;;;;;;;5074292;28;20035;-76
2022/06/29 05:45:18;;;;;;;10.00;9.00;;;;;;;;;;5075891;28;20021;-76
2022/06/29 05:47:45;;;;;;;9.45;7.68;;;;;;;;;;5075992;28;20530;-75
2022/06/29 05:50:11;;;;;;;9.32;7.47;;;;;;;;;;5075793;28;20077;-77
2022/06/29 05:52:37;;;;;;;9.15;7.57;;;;;;;;;;5075975;28;20428;-76
2022/06/29 05:55:05;;;;;;;9.35;8.25;;;;;;;;;;5075565;28;20384;-76
2022/06/29 05:57:33;;;;;;;8.75;7.90;;;;;;;;;;5075927;28;20056;-75
2022/06/29 06:00:01;;;;;;;8.07;7.38;;;;;;;;;;5075088;28;20454;-75
2022/06/29 06:02:27;;;;;;;8.38;7.57;;;;;;;;;;5075276;28;20052;-75
2022/06/29 06:04:53;;;;;;;7.88;7.18;;;;;;;;;;5075906;28;20070;-75
2022/06/29 06:07:19;;;;;;;8.25;7.50;;;;;;;;;;5075463;28;20024;-75
2022/06/29 06:09:45;;;;;;;9.88;7.95;;;;;;;;;;5075477;28;20043;-77
2022/06/29 06:12:12;;;;;;;8.85;7.95;;;;;;;;;;5075334;28;20025;-75
2022/06/29 06:14:38;;;;;;;9.02;7.88;;;;;;;;;;5075312;28;20021;-76
2022/06/29 06:17:04;;;;;;;8.82;7.93;;;;;;;;;;5073984;28;20020;-76
2022/06/29 06:19:30;;;;;;;8.52;7.68;;;;;;;;;;5074830;28;20043;-76
2022/06/29 06:21:57;;;;;;;9.60;8.80;;;;;;;;;;5074225;28;20027;-75
2022/06/29 06:24:23;;;;;;;8.55;7.72;;;;;;;;;;5073778;28;20426;-76
2022/06/29 06:26:49;;;;;;;10.75;7.47;;;;;;;;;;5075240;28;20040;-75
2022/06/29 06:29:15;;;;;;;10.73;7.80;;;;;;;;;;5074872;28;20024;-77
2022/06/29 06:31:41;;;;;;;8.13;7.50;;;;;;;;;;5074563;28;20102;-74
2022/06/29 06:34:07;;;;;;;8.02;7.30;;;;;;;;;;5074900;28;20040;-74
2022/06/29 06:36:34;;;;;;;12.40;7.93;;;;;;;;;;5073786;28;20121;-75
2022/06/29 06:39:00;;;;;;;7.82;7.03;;;;;;;;;;5074914;28;20069;-76
2022/06/29 06:41:26;;;;;;;7.72;7.00;;;;;;;;;;5075012;28;20147;-75
2022/06/29 06:43:53;;;;;;;7.68;7.00;;;;;;;;;;5074891;28;20174;-75
2022/06/29 06:46:20;;;;;;;8.60;7.00;;;;;;;;;;5074903;28;20091;-76
2022/06/29 06:48:46;;;;;;;8.73;7.78;;;;;;;;;;5074317;28;20013;-75
2022/06/29 06:51:13;;;;;;;7.85;7.15;;;;;;;;;;5072588;28;20426;-74
2022/06/29 06:53:39;;;;;;;8.18;7.18;;;;;;;;;;5072687;28;20132;-76
2022/06/29 06:56:09;;;;;;;8.00;7.28;;;;;;;;;;5073552;28;20482;-77
2022/06/29 06:58:35;;;;;;;12.20;7.80;;;;;;;;;;5073455;28;20028;-76
2022/06/29 07:01:03;;;;;;;9.43;6.97;;;;;;;;;;5070765;28;20515;-77
2022/06/29 07:03:31;;;;;;;12.40;7.18;;;;;;;;;;5073231;28;20028;-75
2022/06/29 07:05:59;;;;;;;7.70;6.97;;;;;;;;;;5072377;28;20042;-77
2022/06/29 07:08:25;;;;;;;8.63;7.50;;;;;;;;;;5072178;28;20020;-76
2022/06/29 07:10:51;;;;;;;8.85;7.30;;;;;;;;;;5073987;28;20021;-76
2022/06/29 07:13:17;;;;;;;8.38;6.97;;;;;;;;;;5073273;28;20106;-76
2022/06/29 07:15:43;;;;;;;8.80;7.20;;;;;;;;;;5073842;28;20024;-77
2022/06/29 07:18:09;;;;;;;8.35;7.00;;;;;;;;;;5073498;28;20020;-76
2022/06/29 07:20:35;;;;;;;18.15;7.75;;;;;;;;;;5072047;28;20400;-78
2022/06/29 07:23:02;;;;;;;9.50;7.75;;;;;;;;;;5073385;28;20032;-76
2022/06/29 07:25:28;;;;;;;10.65;7.65;;;;;;;;;;5073353;28;20100;-77
2022/06/29 07:27:54;;;;;;;9.18;7.30;;;;;;;;;;5072922;28;20056;-78
2022/06/29 07:30:20;;;;;;;7.80;7.00;;;;;;;;;;5073087;28;20024;-77
2022/06/29 07:32:48;;;;;;;10.77;7.32;;;;;;;;;;5073009;28;20044;-78
2022/06/29 07:35:14;;;;;;;9.77;7.97;;;;;;;;;;5072678;28;20016;-77
2022/06/29 07:37:40;;;;;;;14.25;7.53;;;;;;;;;;5073437;28;20016;-76
2022/06/29 07:40:06;;;;;;;10.05;7.95;;;;;;;;;;5072520;28;20029;-77
2022/06/29 07:42:35;;;;;;;9.32;7.28;;;;;;;;;;5073436;28;20450;-78
2022/06/29 07:45:01;;;;;;;10.80;6.80;;;;;;;;;;5073668;28;20032;-78
2022/06/29 07:47:27;;;;;;;9.70;6.63;;;;;;;;;;5072140;28;20020;-77
2022/06/29 07:49:54;;;;;;;12.32;6.18;;;;;;;;;;5072881;28;20107;-79
2022/06/29 07:52:20;;;;;;;8.48;6.90;;;;;;;;;;5072787;28;20020;-76
2022/06/29 07:54:46;;;;;;;12.40;7.70;;;;;;;;;;5071722;28;20021;-77
2022/06/29 07:57:12;;;;;;;8.00;7.30;;;;;;;;;;5072991;28;20020;-77
2022/06/29 07:59:39;;;;;;;8.55;7.75;;;;;;;;;;5073241;28;20025;-78
2022/06/29 08:02:05;;;;;;;9.15;7.60;;;;;;;;;;5072954;28;20483;-79
2022/06/29 08:04:31;;;;;;;7.78;6.80;;;;;;;;;;5072140;28;20024;-78
2022/06/29 08:06:57;;;;;;;9.30;7.20;;;;;;;;;;5072884;28;20078;-79
2022/06/29 08:09:23;;;;;;;11.85;8.23;;;;;;;;;;5072207;28;20068;-77
2022/06/29 08:11:51;;;;;;;14.20;7.80;;;;;;;;;;5073265;28;20060;-77
2022/06/29 08:14:17;;;;;;;8.23;7.47;;;;;;;;;;5072873;28;20095;-77
2022/06/29 08:16:43;;;;;;;9.75;7.40;;;;;;;;;;5072978;28;20059;-76
2022/06/29 08:19:09;;;;;;;15.25;7.80;;;;;;;;;;5072768;28;20028;-77
2022/06/29 08:21:36;;;;;;;8.88;7.63;;;;;;;;;;5072602;28;20028;-78
2022/06/29 08:24:02;;;;;;;12.80;7.25;;;;;;;;;;5072775;28;20082;-76
2022/06/29 08:26:28;;;;;;;9.95;7.03;;;;;;;;;;5072344;28;20127;-77
2022/06/29 08:28:54;;;;;;;12.88;7.22;;;;;;;;;;5070374;28;20381;-77
2022/06/29 08:31:20;;;;;;;7.97;7.28;;;;;;;;;;5072188;28;20027;-77
2022/06/29 08:33:46;;;;;;;7.80;7.00;;;;;;;;;;5071522;28;20035;-77
2022/06/29 08:36:15;;;;;;;9.68;6.53;;;;;;;;;;5071210;28;20032;-77
2022/06/29 08:38:41;;;;;;;8.45;7.40;;;;;;;;;;5071498;28;20020;-76
2022/06/29 08:41:07;;;;;;;7.20;6.50;;;;;;;;;;5071912;28;20030;-77
2022/06/29 08:43:34;;;;;;;5.97;5.47;;;;;;;;;;5070251;28;20494;-76
2022/06/29 08:46:00;;;;;;;6.53;5.95;;;;;;;;;;5072421;28;20418;-77
2022/06/29 08:48:26;;;;;;;8.35;6.70;;;;;;;;;;5071098;28;20033;-78
2022/06/29 08:50:54;;;;;;;6.40;5.90;;;;;;;;;;5071981;28;20382;-75
2022/06/29 08:53:20;;;;;;;7.25;6.53;;;;;;;;;;5072710;28;20033;-76
2022/06/29 08:55:48;;;;;;;7.28;6.55;;;;;;;;;;5072675;28;20380;-77
2022/06/29 08:58:15;;;;;;;7.00;5.70;;;;;;;;;;5072028;28;20056;-77
2022/06/29 09:00:41;;;;;;;5.85;5.25;;;;;;;;;;5072950;28;20024;-76
2022/06/29 09:03:08;;;;;;;5.70;5.25;;;;;;;;;;5070546;28;20486;-77
2022/06/29 09:05:34;;;;;;;6.10;5.60;;;;;;;;;;5070440;28;20025;-77
2022/06/29 09:08:00;;;;;;;6.22;5.63;;;;;;;;;;5071438;28;20024;-79
2022/06/29 09:10:29;;;;;;;8.23;5.45;;;;;;;;;;5070733;28;20032;-77
2022/06/29 09:12:57;;;;;;;6.53;5.93;;;;;;;;;;5070761;28;20044;-76
2022/06/29 09:15:38;;;;;;;5.57;5.00;;;;;;;;;;5071716;28;20017;-75
2022/06/29 09:18:22;;;;;;;6.32;4.85;;;;;;;;;;5072578;28;20078;-77
2022/06/29 09:20:52;;;;;;;6.38;5.88;;;;;;;;;;5073355;28;20022;-76
2022/06/29 09:23:19;;;;;;;6.38;5.85;;;;;;;;;;5074510;28;20429;-77
2022/06/29 09:25:45;;;;;;;5.50;4.95;;;;;;;;;;5075892;28;20078;-76
2022/06/29 09:28:21;;;;;;;6.25;5.30;;;;;;;;;;5075860;28;20032;-75
2022/06/29 09:30:47;;;;;;;5.72;5.10;;;;;;;;;;5075736;28;20024;-76
2022/06/29 09:33:14;;;;;;;20.27;5.60;;;;;;;;;;5074942;28;20047;-76
2022/06/29 09:35:40;;;;;;;5.78;5.20;;;;;;;;;;5074509;28;20052;-75
2022/06/29 09:38:19;;;;;;;4.90;4.40;;;;;;;;;;5074338;28;20507;-77
2022/06/29 09:40:58;;;;;;;11.15;5.20;;;;;;;;;;5075273;28;20050;-76
2022/06/29 09:43:24;;;;;;;5.78;5.20;;;;;;;;;;5075426;28;20024;-76
2022/06/29 09:45:52;;;;;;;5.90;5.45;;;;;;;;;;5075388;28;20029;-78
2022/06/29 09:48:20;;;;;;;6.93;6.43;;;;;;;;;;5075402;28;20024;-77
2022/06/29 09:50:46;;;;;;;5.25;4.85;;;;;;;;;;5075458;28;20044;-77
2022/06/29 09:53:13;;;;;;;5.68;5.20;;;;;;;;;;5073554;28;20043;-76
2022/06/29 09:55:39;;;;;;;7.53;5.55;;;;;;;;;;5075064;28;20355;-76
2022/06/29 09:58:05;;;;;;;5.85;5.43;;;;;;;;;;5075412;28;20028;-77
2022/06/29 10:03:17;;;;;;;7.05;6.50;;;;;;;;;;5074997;28;20058;-77
2022/06/29 10:05:55;;;;;;;6.68;6.07;;;;;;;;;;5073888;28;20024;-75
2022/06/29 10:08:21;;;;;;;6.78;6.18;;;;;;;;;;5074582;28;20110;-75
2022/06/29 10:10:49;;;;;;;6.13;5.72;;;;;;;;;;5073672;28;20530;-76
2022/06/29 10:16:24;;;;;;;5.90;5.40;;;;;;;;;;5074804;28;20036;-75
2022/06/29 10:18:50;;;;;;;6.40;5.90;;;;;;;;;;5074891;28;20111;-76
2022/06/29 10:21:20;;;;;;;7.65;6.18;;;;;;;;;;5073050;28;20097;-76
2022/06/29 10:23:53;;;;;;;8.07;5.47;;;;;;;;;;5074846;28;20027;-76
2022/06/29 10:26:32;;;;;;;6.80;5.50;;;;;;;;;;5074063;28;20041;-76
2022/06/29 10:29:11;;;;;;;6.68;6.05;;;;;;;;;;5072810;28;20047;-76
2022/06/29 10:31:49;;;;;;;6.25;5.70;;;;;;;;;;5074681;28;20148;-76
2022/06/29 10:34:31;;;;;;;14.20;5.97;;;;;;;;;;5074057;28;20383;-75
2022/06/29 10:37:07;;;;;;;5.47;4.97;;;;;;;;;;5074044;28;20379;-76
2022/06/29 10:39:48;;;;;;;7.07;6.38;;;;;;;;;;5074366;28;20017;-75
2022/06/29 10:45:21;;;;;;;6.35;5.85;;;;;;;;;;5074037;28;20387;-75
2022/06/29 10:47:53;;;;;;;6.57;5.82;;;;;;;;;;5074230;28;20490;-75
2022/06/29 10:50:21;;;;;;;6.25;5.82;;;;;;;;;;5073578;28;20029;-77
2022/06/29 10:52:48;;;;;;;6.05;5.50;;;;;;;;;;5074437;28;20028;-76
2022/06/29 10:55:15;;;;;;;6.00;5.28;;;;;;;;;;5074849;28;20031;-75
2022/06/29 10:57:44;;;;;;;5.97;5.57;;;;;;;;;;5074433;28;20020;-73
2022/06/29 11:00:18;;;;;;;6.07;5.50;;;;;;;;;;5074782;28;20070;-75
2022/06/29 11:02:44;;;;;;;5.32;4.90;;;;;;;;;;5074791;28;20142;-75
2022/06/29 11:05:11;;;;;;;6.68;6.15;;;;;;;;;;5074681;28;20069;-74
2022/06/29 11:13:11;;;;;;;6.93;6.38;;;;;;;;;;5074311;28;20075;-76
2022/06/29 11:15:48;;;;;;;8.95;6.00;;;;;;;;;;5073157;28;20048;-77
2022/06/29 11:18:17;;;;;;;7.28;6.45;;;;;;;;;;5074159;28;20013;-77
2022/06/29 11:20:44;;;;;;;7.60;6.55;;;;;;;;;;5072808;28;20036;-77
2022/06/29 11:23:12;;;;;;;10.93;7.20;;;;;;;;;;5073797;28;20016;-77
2022/06/29 11:25:39;;;;;;;7.38;6.68;;;;;;;;;;5073048;28;20020;-76
2022/06/29 11:28:05;;;;;;;11.23;7.07;;;;;;;;;;5073541;28;20479;-76
2022/06/29 11:30:32;;;;;;;7.25;6.65;;;;;;;;;;5072044;28;20043;-76
2022/06/29 11:32:58;;;;;;;8.52;7.65;;;;;;;;;;5073330;28;20020;-76
2022/06/29 11:35:26;;;;;;;7.50;6.90;;;;;;;;;;5073532;28;20016;-77
2022/06/29 11:37:53;;;;;;;7.05;6.45;;;;;;;;;;5071822;28;20107;-77
2022/06/29 11:40:20;;;;;;;9.27;6.75;;;;;;;;;;5072684;28;20025;-77
2022/06/29 11:43:05;;;;;;;7.45;6.82;;;;;;;;;;5072590;28;20051;-76
2022/06/29 11:45:46;;;;;;;9.60;7.13;;;;;;;;;;5052780;28;20096;-77
2022/06/29 11:48:12;;;;;;;;;;;;;;;;;;5069224;28;20025;-76
2022/06/29 11:50:46;;;;;;;7.82;6.82;;;;;;;;;;5072084;28;19908;-77
2022/06/29 11:53:13;;;;;;;7.85;7.15;;;;;;;;;;5073056;28;20052;-77
2022/06/29 11:55:43;;;;;;;7.53;6.93;;;;;;;;;;5073318;28;20123;-78
2022/06/29 11:58:10;;;;;;;7.80;7.10;;;;;;;;;;5072397;28;20024;-77
2022/06/29 12:00:39;;;;;;;12.07;6.97;;;;;;;;;;5072426;28;20482;-76
2022/06/29 12:03:05;;;;;;;7.65;7.05;;;;;;;;;;5072509;28;20025;-76
2022/06/29 12:05:31;;;;;;;7.95;7.25;;;;;;;;;;5072295;28;20013;-77
2022/06/29 12:07:58;;;;;;;8.30;7.70;;;;;;;;;;5072492;28;20046;-75
2022/06/29 12:10:24;;;;;;;8.40;7.60;;;;;;;;;;5071239;28;20025;-76
2022/06/29 12:12:50;;;;;;;9.25;6.95;;;;;;;;;;5071877;28;20032;-77
2022/06/29 12:15:17;;;;;;;7.80;6.65;;;;;;;;;;5072059;28;20415;-76
2022/06/29 12:17:44;;;;;;;6.35;5.85;;;;;;;;;;5072983;28;20096;-77
2022/06/29 12:20:11;;;;;;;7.20;6.60;;;;;;;;;;5071184;28;20374;-76
2022/06/29 12:22:37;;;;;;;6.82;6.22;;;;;;;;;;5072976;28;20016;-76
2022/06/29 12:25:03;;;;;;;7.15;6.55;;;;;;;;;;5071517;28;20367;-76
2022/06/29 12:27:30;;;;;;;12.10;6.28;;;;;;;;;;5072556;28;20082;-76
2022/06/29 12:29:56;;;;;;;6.90;5.40;;;;;;;;;;5073217;28;20158;-77
2022/06/29 12:32:22;;;;;;;7.03;6.10;;;;;;;;;;5071479;28;20035;-78
2022/06/29 12:34:48;;;;;;;6.63;6.03;;;;;;;;;;5072547;28;20518;-76
2022/06/29 12:37:14;;;;;;;6.03;5.50;;;;;;;;;;5072153;28;20021;-78
2022/06/29 12:39:40;;;;;;;7.05;5.85;;;;;;;;;;5072446;28;20028;-78
2022/06/29 12:42:07;;;;;;;8.80;5.82;;;;;;;;;;5071460;28;20408;-78
2022/06/29 12:44:33;;;;;;;7.10;6.43;;;;;;;;;;5070199;28;20024;-76
2022/06/29 12:46:59;;;;;;;9.40;6.57;;;;;;;;;;5071068;28;20459;-76
2022/06/29 12:49:25;;;;;;;6.63;6.05;;;;;;;;;;5070996;28;20021;-76
2022/06/29 12:51:52;;;;;;;7.35;6.57;;;;;;;;;;5074712;28;20013;-76
2022/06/29 12:54:18;;;;;;;6.60;5.97;;;;;;;;;;5075380;28;20032;-76
2022/06/29 12:56:44;;;;;;;8.27;5.65;;;;;;;;;;5076096;28;20099;-77
2022/06/29 12:59:10;;;;;;;13.85;6.10;;;;;;;;;;5074905;28;20116;-76
2022/06/29 13:01:37;;;;;;;6.63;5.80;;;;;;;;;;5075954;28;20073;-76
2022/06/29 13:04:03;;;;;;;8.98;6.88;;;;;;;;;;5074543;28;20463;-76
2022/06/29 13:06:29;;;;;;;6.47;6.05;;;;;;;;;;5075968;28;20025;-76
2022/06/29 13:08:56;;;;;;;7.18;6.43;;;;;;;;;;5075663;28;20077;-75
2022/06/29 13:11:22;;;;;;;6.60;6.07;;;;;;;;;;5075843;28;20032;-75
2022/06/29 13:13:48;;;;;;;11.27;6.80;;;;;;;;;;5075884;28;20025;-77
2022/06/29 13:16:14;;;;;;;6.00;5.50;;;;;;;;;;5075735;28;20033;-77
2022/06/29 13:18:40;;;;;;;9.02;6.35;;;;;;;;;;5075846;28;20027;-75
2022/06/29 13:21:07;;;;;;;23.00;9.35;;;;;;;;;;5076672;28;20060;-75
2022/06/29 13:23:33;;;;;;;21.20;9.98;;;;;;;;;;5076265;28;20112;-75
2022/06/29 13:25:59;;;;;;;6.32;5.82;;;;;;;;;;5076400;28;20055;-76
2022/06/29 13:28:27;;;;;;;8.25;7.22;;;;;;;;;;5076569;28;20028;-76
2022/06/29 13:30:53;;;;;;;7.50;6.80;;;;;;;;;;5076116;28;20058;-76
2022/06/29 13:33:20;;;;;;;8.45;6.65;;;;;;;;;;5076419;28;20035;-75
2022/06/29 13:35:47;;;;;;;7.78;7.18;;;;;;;;;;5076603;28;20013;-75
2022/06/29 13:38:13;;;;;;;18.48;10.00;;;;;;;;;;5076024;28;20016;-76
2022/06/29 13:40:40;;;;;;;29.77;12.07;;;;;;;;;;5076328;28;20071;-75
2022/06/29 13:43:06;;;;;;;9.05;7.63;;;;;;;;;;5076322;28;20025;-76
2022/06/29 13:45:32;;;;;;;35.85;12.38;;;;;;;;;;5074669;28;20020;-75
2022/06/29 13:47:58;;;;;;;38.30;12.82;;;;;;;;;;5074922;28;20140;-76
2022/06/29 13:50:24;;;;;;;38.92;11.30;;;;;;;;;;5075930;28;20093;-75
2022/06/29 13:52:51;;;;;;;38.10;12.35;;;;;;;;;;5075585;28;20048;-75
2022/06/29 13:55:17;;;;;;;42.28;15.65;;;;;;;;;;5075731;28;20357;-76
2022/06/29 13:57:43;;;;;;;43.45;18.63;;;;;;;;;;5075854;28;20028;-77
2022/06/29 14:00:11;;;;;;;41.70;12.90;;;;;;;;;;5074401;28;20029;-76
2022/06/29 14:02:39;;;;;;;43.50;11.90;;;;;;;;;;5074946;28;20028;-75